createdAt,value
2019-03-09T00:01:28.463Z,6.87
2019-03-09T00:04:03.206Z,12.23
2019-03-09T00:06:39.069Z,5.37
2019-03-09T00:09:11.689Z,10.07
2019-03-09T00:11:45.712Z,8.17
2019-03-09T00:14:19.676Z,9.67
2019-03-09T00:16:52.360Z,10.93
2019-03-09T00:19:27.963Z,7.60
2019-03-09T00:22:01.784Z,9.67
2019-03-09T00:24:41.588Z,9.43
2019-03-09T00:27:36.367Z,7.83
2019-03-09T00:30:29.960Z,7.82
2019-03-09T00:33:02.722Z,9.50
2019-03-09T00:35:37.194Z,6.45
2019-03-09T00:38:11.659Z,9.07
2019-03-09T00:40:44.584Z,10.40
2019-03-09T00:43:17.514Z,8.70
2019-03-09T00:45:50.525Z,9.90
2019-03-09T00:48:24.383Z,6.53
2019-03-09T00:50:56.772Z,10.20
2019-03-09T00:53:30.630Z,12.53
2019-03-09T00:56:04.963Z,7.13
2019-03-09T00:58:37.565Z,7.35
2019-03-09T01:01:10.763Z,12.17
2019-03-09T01:03:43.336Z,9.43
2019-03-09T01:06:16.059Z,7.20
2019-03-09T01:08:49.079Z,12.37
2019-03-09T01:11:21.623Z,11.05
2019-03-09T01:13:54.218Z,10.30
2019-03-09T01:16:27.271Z,9.57
2019-03-09T01:18:59.823Z,9.87
2019-03-09T01:21:32.525Z,9.33
2019-03-09T01:24:05.592Z,9.00
2019-03-09T01:26:38.159Z,8.47
2019-03-09T01:29:11.098Z,8.03
2019-03-09T01:31:44.910Z,10.77
2019-03-09T01:34:17.494Z,8.77
2019-03-09T01:36:50.091Z,8.33
2019-03-09T01:39:23.087Z,7.83
2019-03-09T01:41:55.658Z,9.40
2019-03-09T01:44:28.211Z,10.00
2019-03-09T01:47:01.224Z,8.80
2019-03-09T01:49:33.745Z,7.17
2019-03-09T01:52:07.120Z,5.17
2019-03-09T01:54:40.866Z,6.97
2019-03-09T01:57:14.357Z,5.53
2019-03-09T01:59:47.765Z,6.63
2019-03-09T02:02:21.554Z,10.33
2019-03-09T02:04:54.179Z,6.80
2019-03-09T02:07:27.552Z,7.00
2019-03-09T02:10:00.422Z,8.20
2019-03-09T02:12:35.419Z,5.60
2019-03-09T02:15:08.644Z,5.73
2019-03-09T02:17:41.779Z,5.63
2019-03-09T02:20:15.286Z,6.10
2019-03-09T02:22:48.340Z,6.40
2019-03-09T02:25:20.944Z,6.63
2019-03-09T02:27:53.486Z,10.47
2019-03-09T02:30:26.151Z,7.27
2019-03-09T02:32:59.129Z,7.43
2019-03-09T02:35:31.678Z,5.27
2019-03-09T02:38:24.877Z,6.23
2019-03-09T02:40:57.679Z,6.75
2019-03-09T02:43:30.254Z,6.85
2019-03-09T02:46:02.799Z,6.00
2019-03-09T02:48:35.408Z,6.23
2019-03-09T02:51:09.246Z,5.93
2019-03-09T02:53:43.376Z,5.47
2019-03-09T02:56:16.663Z,6.27
2019-03-09T02:58:49.722Z,6.90
2019-03-09T03:01:35.372Z,7.67
2019-03-09T03:04:08.826Z,5.50
2019-03-09T03:06:41.662Z,6.73
2019-03-09T03:09:15.466Z,8.30
2019-03-09T03:11:48.849Z,5.30
2019-03-09T03:14:23.127Z,4.27
2019-03-09T03:16:55.679Z,4.70
2019-03-09T03:19:28.445Z,5.67
2019-03-09T03:22:01.731Z,4.83
2019-03-09T03:24:34.407Z,8.53
2019-03-09T03:27:07.036Z,6.03
2019-03-09T03:29:41.590Z,5.83
2019-03-09T03:32:14.163Z,6.80
2019-03-09T03:34:46.733Z,7.67
2019-03-09T03:37:19.546Z,6.30
2019-03-09T03:39:52.157Z,6.03
2019-03-09T03:42:24.938Z,7.37
2019-03-09T03:44:57.930Z,6.30
2019-03-09T03:47:30.418Z,6.80
2019-03-09T03:50:03.110Z,6.93
2019-03-09T03:52:36.050Z,11.20
2019-03-09T03:55:08.732Z,6.97
2019-03-09T03:57:41.171Z,7.93
2019-03-09T04:00:17.209Z,7.33
2019-03-09T04:02:49.876Z,6.28
2019-03-09T04:05:25.574Z,8.30
2019-03-09T04:07:59.951Z,6.67
2019-03-09T04:10:33.413Z,5.80
2019-03-09T04:13:05.880Z,7.13
2019-03-09T04:15:39.972Z,5.77
2019-03-09T04:18:12.404Z,5.80
2019-03-09T04:20:45.051Z,6.27
2019-03-09T04:23:17.748Z,6.20
2019-03-09T04:25:50.432Z,7.03
2019-03-09T04:28:23.096Z,6.80
2019-03-09T04:30:55.898Z,6.85
2019-03-09T04:33:29.229Z,6.17
2019-03-09T04:36:01.667Z,7.30
2019-03-09T04:38:34.660Z,8.03
2019-03-09T04:41:07.283Z,8.13
2019-03-09T04:43:40.004Z,8.53
2019-03-09T04:46:12.886Z,8.13
2019-03-09T04:48:45.440Z,7.50
2019-03-09T04:51:18.055Z,7.03
2019-03-09T04:53:51.082Z,6.83
2019-03-09T04:56:23.607Z,7.00
2019-03-09T04:58:56.154Z,6.70
2019-03-09T05:01:29.243Z,6.60
2019-03-09T05:04:40.929Z,7.05
2019-03-09T05:07:26.107Z,5.37
2019-03-09T05:10:21.056Z,5.13
2019-03-09T05:13:01.183Z,5.93
2019-03-09T05:15:34.078Z,5.97
2019-03-09T05:18:06.994Z,6.73
2019-03-09T05:20:39.450Z,6.33
2019-03-09T05:23:12.133Z,7.10
2019-03-09T05:25:45.923Z,7.43
2019-03-09T05:28:18.764Z,8.00
2019-03-09T05:30:52.732Z,8.00
2019-03-09T05:33:25.304Z,7.73
2019-03-09T05:35:57.786Z,7.80
2019-03-09T05:38:30.651Z,8.98
2019-03-09T05:41:03.262Z,8.60
2019-03-09T05:43:35.770Z,8.90
2019-03-09T05:46:08.838Z,8.70
2019-03-09T05:48:41.533Z,8.97
2019-03-09T05:51:14.184Z,9.93
2019-03-09T05:53:47.247Z,9.40
2019-03-09T05:56:19.689Z,9.23
2019-03-09T05:58:52.767Z,8.73
2019-03-09T06:01:25.788Z,9.43
2019-03-09T06:04:00.242Z,10.77
2019-03-09T06:06:32.884Z,11.93
2019-03-09T06:09:06.696Z,10.47
2019-03-09T06:11:39.251Z,11.60
2019-03-09T06:14:12.535Z,11.20
2019-03-09T06:16:46.371Z,11.37
2019-03-09T06:19:19.072Z,11.10
2019-03-09T06:21:51.861Z,13.00
2019-03-09T06:24:25.075Z,11.70
2019-03-09T06:26:57.574Z,12.67
2019-03-09T06:29:30.293Z,9.57
2019-03-09T06:32:42.935Z,10.93
2019-03-09T06:35:27.302Z,10.90
2019-03-09T06:38:36.795Z,9.57
2019-03-09T06:41:41.533Z,10.77
2019-03-09T06:44:15.347Z,11.67
2019-03-09T06:46:50.046Z,10.13
2019-03-09T06:49:22.681Z,9.43
2019-03-09T06:51:55.378Z,10.40
2019-03-09T06:54:30.557Z,10.07
2019-03-09T06:57:03.113Z,8.87
2019-03-09T06:59:36.624Z,8.77
2019-03-09T07:02:10.192Z,10.13
2019-03-09T07:04:42.913Z,15.60
2019-03-09T07:07:16.391Z,9.60
2019-03-09T07:09:48.920Z,12.07
2019-03-09T07:12:21.490Z,10.93
2019-03-09T07:15:22.667Z,10.33
2019-03-09T07:18:01.801Z,10.63
2019-03-09T07:20:35.740Z,11.35
2019-03-09T07:23:09.215Z,10.57
2019-03-09T07:25:41.802Z,9.90
2019-03-09T07:28:17.703Z,9.33
2019-03-09T07:30:53.761Z,9.70
2019-03-09T07:33:26.667Z,9.77
2019-03-09T07:36:00.829Z,9.13
2019-03-09T07:38:33.651Z,10.50
2019-03-09T07:41:08.955Z,10.02
2019-03-09T07:43:41.664Z,9.47
2019-03-09T07:46:15.463Z,9.43
2019-03-09T07:48:51.177Z,9.45
2019-03-09T07:51:23.838Z,8.53
2019-03-09T07:53:58.929Z,8.60
2019-03-09T07:56:31.523Z,9.00
2019-03-09T07:59:04.219Z,9.27
2019-03-09T08:01:37.073Z,9.67
2019-03-09T08:04:10.531Z,8.52
2019-03-09T08:06:43.133Z,9.40
2019-03-09T08:09:32.712Z,8.63
2019-03-09T08:12:06.281Z,8.53
2019-03-09T08:14:39.771Z,9.87
2019-03-09T08:17:14.402Z,9.27
2019-03-09T08:19:49.274Z,10.33
2019-03-09T08:22:23.005Z,9.67
2019-03-09T08:24:57.953Z,9.33
2019-03-09T08:27:32.458Z,7.80
2019-03-09T08:30:13.791Z,9.10
2019-03-09T08:32:48.266Z,11.83
2019-03-09T08:35:21.641Z,8.97
2019-03-09T08:37:54.587Z,10.53
2019-03-09T08:40:28.155Z,9.50
2019-03-09T08:43:01.843Z,8.25
2019-03-09T08:45:36.516Z,7.70
2019-03-09T08:48:32.191Z,10.90
2019-03-09T08:51:25.040Z,12.87
2019-03-09T08:54:15.504Z,11.27
2019-03-09T08:57:09.666Z,6.37
2019-03-09T09:00:04.145Z,9.57
2019-03-09T09:02:58.802Z,7.57
2019-03-09T09:05:34.795Z,8.00
2019-03-09T09:08:10.290Z,6.67
2019-03-09T09:10:44.454Z,8.02
2019-03-09T09:13:17.913Z,7.90
2019-03-09T09:15:51.354Z,6.97
2019-03-09T09:18:25.185Z,9.60
2019-03-09T09:20:58.107Z,6.83
2019-03-09T09:23:31.309Z,7.18
2019-03-09T09:26:19.978Z,7.60
2019-03-09T09:28:54.782Z,9.37
2019-03-09T09:31:30.992Z,7.07
2019-03-09T09:34:03.751Z,6.53
2019-03-09T09:36:36.800Z,8.33
2019-03-09T09:39:12.855Z,13.20
2019-03-09T09:41:45.755Z,8.13
2019-03-09T09:44:21.511Z,8.33
2019-03-09T09:46:54.164Z,8.33
2019-03-09T09:49:27.214Z,8.77
2019-03-09T09:52:00.265Z,9.80
2019-03-09T09:54:34.959Z,9.03
2019-03-09T09:57:08.846Z,6.73
2019-03-09T09:59:42.755Z,8.90
2019-03-09T10:02:16.563Z,7.67
2019-03-09T10:04:51.809Z,11.03
2019-03-09T10:07:25.397Z,7.27
2019-03-09T10:09:58.625Z,5.40
2019-03-09T10:12:34.491Z,9.10
2019-03-09T10:15:16.700Z,10.37
2019-03-09T10:17:53.419Z,5.47
2019-03-09T10:20:27.589Z,7.43
2019-03-09T10:23:04.567Z,6.63
2019-03-09T10:25:38.918Z,10.47
2019-03-09T10:28:16.507Z,9.40
2019-03-09T10:30:49.950Z,10.33
2019-03-09T10:33:30.947Z,9.37
2019-03-09T10:36:04.240Z,8.50
2019-03-09T10:38:37.661Z,12.20
2019-03-09T10:41:11.696Z,7.55
2019-03-09T10:43:44.346Z,9.17
2019-03-09T10:46:17.063Z,10.33
2019-03-09T10:48:50.505Z,10.53
2019-03-09T10:51:24.602Z,9.43
2019-03-09T10:53:58.370Z,6.70
2019-03-09T10:56:31.186Z,8.37
2019-03-09T10:59:05.145Z,10.37
2019-03-09T11:01:38.861Z,9.53
2019-03-09T11:04:27.018Z,8.13
2019-03-09T11:07:11.513Z,10.97
2019-03-09T11:09:45.539Z,7.87
2019-03-09T11:12:20.277Z,6.10
2019-03-09T11:14:56.960Z,6.33
2019-03-09T11:17:31.775Z,6.17
2019-03-09T11:20:05.504Z,8.77
2019-03-09T11:22:39.364Z,6.63
2019-03-09T11:25:15.240Z,6.23
2019-03-09T11:27:49.821Z,8.43
2019-03-09T11:30:27.744Z,10.77
2019-03-09T11:33:01.143Z,7.87
2019-03-09T11:35:33.739Z,9.57
2019-03-09T11:38:07.059Z,8.27
2019-03-09T11:40:40.345Z,7.80
2019-03-09T11:43:17.075Z,8.30
2019-03-09T11:45:50.838Z,8.53
2019-03-09T11:48:26.814Z,6.53
2019-03-09T11:51:07.259Z,7.67
2019-03-09T11:53:41.323Z,5.73
2019-03-09T11:56:15.900Z,7.97
2019-03-09T11:58:52.691Z,7.07
2019-03-09T12:01:26.343Z,4.07
2019-03-09T12:04:01.740Z,3.83
2019-03-09T12:06:35.906Z,4.40
2019-03-09T12:09:11.666Z,2.97
2019-03-09T12:11:59.447Z,2.40
2019-03-09T12:14:32.681Z,4.97
2019-03-09T12:17:12.684Z,4.97
2019-03-09T12:19:46.796Z,4.37
2019-03-09T12:22:21.079Z,4.05
2019-03-09T12:24:57.683Z,3.10
2019-03-09T12:27:31.904Z,4.43
2019-03-09T12:30:09.198Z,4.20
2019-03-09T12:32:43.886Z,5.17
2019-03-09T12:35:20.331Z,4.83
2019-03-09T12:37:55.355Z,5.93
2019-03-09T12:40:29.350Z,7.07
2019-03-09T12:43:03.509Z,6.73
2019-03-09T12:45:41.955Z,5.57
2019-03-09T12:48:21.002Z,5.47
2019-03-09T12:50:57.373Z,7.97
2019-03-09T12:53:33.618Z,6.43
2019-03-09T12:56:08.261Z,5.93
2019-03-09T12:58:41.200Z,9.23
2019-03-09T13:01:17.597Z,6.15
2019-03-09T13:03:55.200Z,7.37
2019-03-09T13:06:31.539Z,4.83
2019-03-09T13:09:08.308Z,5.87
2019-03-09T13:11:46.028Z,9.60
2019-03-09T13:14:21.237Z,7.60
2019-03-09T13:16:54.140Z,6.53
2019-03-09T13:19:27.694Z,7.23
2019-03-09T13:22:02.251Z,7.90
2019-03-09T13:24:37.092Z,13.53
2019-03-09T13:27:10.546Z,8.30
2019-03-09T13:29:47.066Z,9.53
2019-03-09T13:32:21.748Z,9.10
2019-03-09T13:34:55.384Z,13.33
2019-03-09T13:37:28.616Z,9.77
2019-03-09T13:40:01.816Z,12.83
2019-03-09T13:42:36.352Z,10.67
2019-03-09T13:45:15.606Z,13.70
2019-03-09T13:47:48.985Z,19.63
2019-03-09T13:50:22.724Z,13.37
2019-03-09T13:52:57.293Z,16.33
2019-03-09T13:55:31.136Z,19.33
2019-03-09T13:58:03.875Z,15.67
2019-03-09T14:00:40.692Z,18.93
2019-03-09T14:03:15.270Z,21.90
2019-03-09T14:05:48.747Z,20.37
2019-03-09T14:08:24.395Z,17.13
2019-03-09T14:10:57.679Z,19.07
2019-03-09T14:13:34.351Z,31.53
2019-03-09T14:16:08.522Z,21.60
2019-03-09T14:18:54.524Z,21.77
2019-03-09T14:21:27.461Z,30.57
2019-03-09T14:24:03.069Z,27.87
2019-03-09T14:26:44.018Z,17.97
2019-03-09T14:29:20.133Z,25.63
2019-03-09T14:31:55.060Z,24.30
2019-03-09T14:34:28.135Z,23.75
2019-03-09T14:37:06.747Z,23.83
2019-03-09T14:39:40.123Z,22.02
2019-03-09T14:42:13.018Z,20.70
2019-03-09T14:44:45.618Z,18.80
2019-03-09T14:47:18.171Z,21.23
2019-03-09T14:49:51.683Z,23.30
2019-03-09T14:52:25.361Z,23.53
2019-03-09T14:54:58.106Z,21.98
2019-03-09T14:57:31.309Z,22.60
2019-03-09T15:00:09.304Z,29.93
2019-03-09T15:02:43.830Z,22.10
2019-03-09T15:05:20.468Z,21.97
2019-03-09T15:08:00.647Z,21.50
2019-03-09T15:10:33.498Z,19.57
2019-03-09T15:13:09.963Z,26.48
2019-03-09T15:15:42.745Z,21.57
2019-03-09T15:18:16.461Z,19.60
2019-03-09T15:20:51.244Z,26.27
2019-03-09T15:23:24.263Z,27.63
2019-03-09T15:25:58.492Z,23.00
2019-03-09T15:28:32.442Z,20.77
2019-03-09T15:31:07.354Z,20.30
2019-03-09T15:33:52.295Z,22.50
2019-03-09T15:36:27.390Z,22.37
2019-03-09T15:39:01.940Z,19.90
2019-03-09T15:41:37.359Z,20.33
2019-03-09T15:44:11.611Z,22.43
2019-03-09T15:46:48.957Z,23.80
2019-03-09T15:49:25.078Z,14.30
2019-03-09T15:52:03.552Z,15.03
2019-03-09T15:54:44.766Z,13.87
2019-03-09T15:57:21.482Z,17.90
2019-03-09T15:59:57.209Z,18.67
2019-03-09T16:02:34.645Z,19.47
2019-03-09T16:05:08.297Z,15.53
2019-03-09T16:07:49.599Z,14.77
2019-03-09T16:10:27.107Z,10.23
2019-03-09T16:13:01.319Z,15.47
2019-03-09T16:15:35.206Z,15.27
2019-03-09T16:18:09.792Z,18.83
2019-03-09T16:20:42.919Z,14.90
2019-03-09T16:23:17.270Z,12.80
2019-03-09T16:25:59.908Z,18.13
2019-03-09T16:28:33.540Z,13.43
2019-03-09T16:31:07.948Z,16.63
2019-03-09T16:33:43.804Z,15.53
2019-03-09T16:36:20.119Z,11.87
2019-03-09T16:38:53.816Z,11.73
2019-03-09T16:41:26.552Z,8.33
2019-03-09T16:44:08.425Z,10.40
2019-03-09T16:46:43.738Z,6.83
2019-03-09T16:49:19.385Z,12.53
2019-03-09T16:51:54.210Z,5.93
2019-03-09T16:54:35.631Z,7.00
2019-03-09T16:57:11.974Z,4.10
2019-03-09T16:59:45.235Z,5.13
2019-03-09T17:02:27.556Z,4.57
2019-03-09T17:05:23.205Z,5.17
2019-03-09T17:08:15.571Z,7.00
2019-03-09T17:11:01.451Z,5.73
2019-03-09T17:13:37.500Z,5.13
2019-03-09T17:16:13.769Z,9.75
2019-03-09T17:18:46.787Z,7.27
2019-03-09T17:21:19.473Z,8.63
2019-03-09T17:23:53.003Z,10.87
2019-03-09T17:26:35.351Z,8.13
2019-03-09T17:29:08.300Z,9.13
2019-03-09T17:31:44.631Z,8.57
2019-03-09T17:34:19.100Z,5.07
2019-03-09T17:36:53.105Z,7.53
2019-03-09T17:39:30.983Z,9.83
2019-03-09T17:42:05.972Z,6.40
2019-03-09T17:44:41.148Z,6.77
2019-03-09T17:47:18.556Z,7.43
2019-03-09T17:49:53.563Z,9.93
2019-03-09T17:52:30.457Z,6.20
2019-03-09T17:55:07.937Z,10.47
2019-03-09T17:57:42.929Z,7.93
2019-03-09T18:00:28.406Z,7.27
2019-03-09T18:03:06.627Z,11.93
2019-03-09T18:05:41.206Z,11.43
2019-03-09T18:08:17.089Z,6.37
2019-03-09T18:10:57.476Z,7.50
2019-03-09T18:13:31.559Z,9.63
2019-03-09T18:16:08.407Z,8.17
2019-03-09T18:18:42.471Z,11.03
2019-03-09T18:21:15.286Z,6.53
2019-03-09T18:23:50.591Z,6.82
2019-03-09T18:26:23.293Z,8.68
2019-03-09T18:28:55.721Z,15.00
2019-03-09T18:31:29.433Z,8.83
2019-03-09T18:34:02.815Z,10.30
2019-03-09T18:36:35.958Z,9.77
2019-03-09T18:39:08.644Z,8.87
2019-03-09T18:41:45.394Z,11.83
2019-03-09T18:44:20.591Z,9.67
2019-03-09T18:46:58.799Z,10.18
2019-03-09T18:49:35.807Z,12.87
2019-03-09T18:52:14.610Z,9.63
2019-03-09T18:54:54.299Z,13.48
2019-03-09T18:57:30.846Z,11.80
2019-03-09T19:00:14.506Z,14.67
2019-03-09T19:02:50.403Z,9.27
2019-03-09T19:05:26.709Z,9.75
2019-03-09T19:07:59.680Z,9.93
2019-03-09T19:10:33.504Z,12.53
2019-03-09T19:13:08.212Z,10.63
2019-03-09T19:15:41.045Z,12.63
2019-03-09T19:18:14.871Z,13.03
2019-03-09T19:20:49.246Z,12.47
2019-03-09T19:23:22.607Z,14.33
2019-03-09T19:25:56.704Z,9.43
2019-03-09T19:28:31.163Z,16.50
2019-03-09T19:31:05.463Z,13.43
2019-03-09T19:33:39.546Z,15.50
2019-03-09T19:36:13.511Z,11.60
2019-03-09T19:38:58.695Z,21.17
2019-03-09T19:41:32.839Z,11.70
2019-03-09T19:44:09.194Z,9.50
2019-03-09T19:46:43.333Z,10.83
2019-03-09T19:49:55.076Z,13.07
2019-03-09T19:52:46.732Z,16.10
2019-03-09T19:55:25.759Z,14.93
2019-03-09T19:57:59.999Z,12.10
2019-03-09T20:00:35.464Z,13.73
2019-03-09T20:03:10.447Z,10.60
2019-03-09T20:05:43.765Z,13.97
2019-03-09T20:08:16.700Z,14.83
2019-03-09T20:10:50.801Z,15.80
2019-03-09T20:13:24.767Z,15.85
2019-03-09T20:15:59.160Z,13.27
2019-03-09T20:18:32.700Z,16.13
2019-03-09T20:21:11.647Z,14.00
2019-03-09T20:23:45.081Z,14.33
2019-03-09T20:26:21.125Z,14.23
2019-03-09T20:28:55.894Z,12.13
2019-03-09T20:31:32.072Z,13.47
2019-03-09T20:34:06.858Z,10.87
2019-03-09T20:36:41.052Z,12.20
2019-03-09T20:39:13.802Z,11.57
2019-03-09T20:41:46.549Z,12.20
2019-03-09T20:44:20.910Z,11.93
2019-03-09T20:46:55.095Z,13.43
2019-03-09T20:49:28.188Z,8.63
2019-03-09T20:52:00.916Z,12.50
2019-03-09T20:54:33.447Z,13.33
2019-03-09T20:57:08.428Z,9.87
2019-03-09T20:59:45.348Z,13.33
2019-03-09T21:02:18.861Z,15.03
2019-03-09T21:04:52.604Z,11.13
2019-03-09T21:07:27.294Z,7.87
2019-03-09T21:10:01.972Z,8.53
2019-03-09T21:12:36.079Z,8.80
2019-03-09T21:15:09.478Z,10.30
2019-03-09T21:17:44.858Z,10.13
2019-03-09T21:20:20.425Z,10.57
2019-03-09T21:22:54.509Z,10.57
2019-03-09T21:25:28.779Z,6.60
2019-03-09T21:28:14.753Z,7.67
2019-03-09T21:30:50.985Z,7.40
2019-03-09T21:33:26.423Z,8.50
2019-03-09T21:36:01.455Z,8.70
2019-03-09T21:38:36.364Z,10.13
2019-03-09T21:41:10.765Z,8.43
2019-03-09T21:43:44.994Z,9.13
2019-03-09T21:46:21.188Z,11.23
2019-03-09T21:48:55.470Z,13.63
2019-03-09T21:51:29.414Z,10.37
2019-03-09T21:54:03.068Z,10.50
2019-03-09T21:56:37.326Z,11.50
2019-03-09T21:59:10.574Z,9.30
2019-03-09T22:01:43.748Z,10.00
2019-03-09T22:04:18.331Z,10.30
2019-03-09T22:06:51.915Z,11.77
2019-03-09T22:09:27.014Z,13.30
2019-03-09T22:12:00.173Z,11.20
2019-03-09T22:14:32.869Z,10.00
2019-03-09T22:17:05.761Z,11.50
2019-03-09T22:19:45.579Z,14.43
2019-03-09T22:22:19.636Z,12.57
2019-03-09T22:24:53.671Z,16.17
2019-03-09T22:27:27.283Z,12.40
2019-03-09T22:30:03.767Z,13.03
2019-03-09T22:32:36.843Z,11.93
2019-03-09T22:35:15.706Z,13.27
2019-03-09T22:37:51.640Z,14.97
2019-03-09T22:40:25.615Z,11.10
2019-03-09T22:42:58.025Z,12.75
2019-03-09T22:45:31.785Z,13.73
2019-03-09T22:48:08.455Z,12.27
2019-03-09T22:50:41.966Z,13.30
2019-03-09T22:53:16.799Z,11.37
2019-03-09T22:55:49.651Z,14.50
2019-03-09T22:58:22.895Z,15.50
2019-03-09T23:00:57.931Z,14.67
2019-03-09T23:03:30.512Z,19.50
2019-03-09T23:06:05.101Z,20.60
2019-03-09T23:08:38.783Z,14.63
2019-03-09T23:11:12.138Z,20.47
2019-03-09T23:13:44.769Z,17.93
2019-03-09T23:16:17.883Z,21.77
2019-03-09T23:18:50.556Z,22.43
2019-03-09T23:21:23.519Z,22.83
2019-03-09T23:23:56.455Z,24.03
2019-03-09T23:26:29.208Z,21.30
2019-03-09T23:29:01.844Z,30.17
2019-03-09T23:31:35.152Z,23.80
2019-03-09T23:34:08.304Z,27.20
2019-03-09T23:36:41.223Z,27.23
2019-03-09T23:39:14.836Z,31.27
2019-03-09T23:41:50.239Z,27.23
2019-03-09T23:44:22.825Z,31.73
2019-03-09T23:46:55.846Z,31.50
2019-03-09T23:49:29.570Z,34.43
2019-03-09T23:52:02.933Z,36.37
2019-03-09T23:54:41.157Z,32.47
2019-03-09T23:57:15.639Z,37.37
2019-03-09T23:59:51.952Z,31.43
